Quick Links (Output Below):   Max & Min Temps   /   Climate Reports   /   Zone Forecasts
River Forecasts   /   Forestry Forecasts   /   Aviation Forecasts   /   Radars   /   Features

Terminal Aerodrome Forecast (El Dorado)

Pick a Site:
Arkadelphia | El Dorado | Fayetteville | Fort Smith | Harrison | Highfill | Hot Springs | Jonesboro
Little Rock | Monticello | Mountain Home | Pine Bluff | Texarkana

KELD 250524Z 2506/2606 12004KT P6SM SCT060
      TEMPO 2509/2513 BKN060
     FM251300 14007KT P6SM OVC060
     FM260000 13005KT P6SM BKN060=

 Latest METARs (Observations) 
How to Decode METARs
08Z KELD 250753Z AUTO 14006KT 10SM BKN065 09/04 A3019 RMK AO2 SLP222
07Z KELD 250653Z AUTO 14005KT 10SM SCT060 09/04 A3019 RMK AO2 SLP221
06Z KELD 250553Z AUTO 14007KT 10SM CLR 09/03 A3019 RMK AO2 SLP223
         T00890033 10111 20072 401780033 57004
05Z KELD 250453Z AUTO 11005KT 10SM CLR 07/02 A3019 RMK AO2 SLP224
04Z KELD 250353Z AUTO 00000KT 10SM CLR 08/02 A3020 RMK AO2 SLP227
03Z KELD 250253Z AUTO 12006KT 10SM CLR 08/02 A3020 RMK AO2 SLP228
         T00830022 50003
02Z KELD 250153Z AUTO 11006KT 10SM CLR 09/02 A3021 RMK AO2 SLP231
01Z KELD 250053Z AUTO 10004KT 10SM CLR 10/02 A3020 RMK AO2 SLP228
00Z KELD 242353Z AUTO 10004KT 10SM CLR 11/02 A3020 RMK AO2 SLP225
         T01060017 10178 20106 55001
***** Today's Observations (Above) *****

23Z KELD 242253Z AUTO 12005KT 10SM CLR 14/M01 A3019 RMK AO2 SLP221
***** Yesterday's Observations (Above) *****

Back to Main Page

USA.gov is the U.S. government's official web portal to all federal, state and local government web resources and services.